createdAt,value
2018-05-01T00:00:11.265Z,13.93
2018-05-01T00:02:39.645Z,14.09
2018-05-01T00:05:07.974Z,14.20
2018-05-01T00:07:37.068Z,14.22
2018-05-01T00:10:06.376Z,14.49
2018-05-01T00:12:35.455Z,14.36
2018-05-01T00:15:03.795Z,14.22
2018-05-01T00:17:32.149Z,14.26
2018-05-01T00:20:00.471Z,14.47
2018-05-01T00:22:28.807Z,14.51
2018-05-01T00:24:57.147Z,14.87
2018-05-01T00:27:25.446Z,14.53
2018-05-01T00:29:53.762Z,14.73
2018-05-01T00:32:22.518Z,14.70
2018-05-01T00:34:51.594Z,14.69
2018-05-01T00:37:19.944Z,14.76
2018-05-01T00:39:48.300Z,14.78
2018-05-01T00:42:16.628Z,14.63
2018-05-01T00:44:44.958Z,14.70
2018-05-01T00:47:13.332Z,14.85
2018-05-01T00:49:41.665Z,15.10
2018-05-01T00:52:27.748Z,15.19
2018-05-01T00:54:56.119Z,15.11
2018-05-01T00:57:24.439Z,14.85
2018-05-01T00:59:53.610Z,14.82
2018-05-01T01:02:21.966Z,14.75
2018-05-01T01:04:50.327Z,14.82
2018-05-01T01:07:18.710Z,14.92
2018-05-01T01:09:47.012Z,14.83
2018-05-01T01:12:15.317Z,14.68
2018-05-01T01:14:44.093Z,14.67
2018-05-01T01:17:12.446Z,14.73
2018-05-01T01:19:40.834Z,14.61
2018-05-01T01:22:09.205Z,14.52
2018-05-01T01:24:37.536Z,14.55
2018-05-01T01:27:05.862Z,14.80
2018-05-01T01:29:34.222Z,14.84
2018-05-01T01:32:18.795Z,14.76
2018-05-01T01:34:47.763Z,15.07
2018-05-01T01:37:15.273Z,14.93
2018-05-01T01:39:42.795Z,14.78
2018-05-01T01:42:11.113Z,14.88
2018-05-01T01:44:38.622Z,14.77
2018-05-01T01:47:06.918Z,14.46
2018-05-01T01:49:34.482Z,14.73
2018-05-01T01:52:01.982Z,14.63
2018-05-01T01:54:30.002Z,14.81
2018-05-01T01:56:58.170Z,14.48
2018-05-01T01:59:25.679Z,14.66
2018-05-01T02:01:53.190Z,14.33
2018-05-01T02:04:21.499Z,14.36
2018-05-01T02:06:49.030Z,14.21
2018-05-01T02:09:16.539Z,14.36
2018-05-01T02:11:44.121Z,14.50
2018-05-01T02:14:11.647Z,14.59
2018-05-01T02:16:39.172Z,14.57
2018-05-01T02:19:07.349Z,14.59
2018-05-01T02:21:34.896Z,14.75
2018-05-01T02:24:03.180Z,14.56
2018-05-01T02:26:31.514Z,14.69
2018-05-01T02:28:59.039Z,14.46
2018-05-01T02:31:26.556Z,14.58
2018-05-01T02:33:54.114Z,14.21
2018-05-01T02:36:21.658Z,14.34
2018-05-01T02:38:49.203Z,14.30
2018-05-01T02:41:17.223Z,13.98
2018-05-01T02:43:44.701Z,13.92
2018-05-01T02:46:12.270Z,13.64
2018-05-01T02:48:39.847Z,13.33
2018-05-01T02:51:07.384Z,13.27
2018-05-01T02:53:34.925Z,13.50
2018-05-01T02:56:03.455Z,12.96
2018-05-01T02:58:30.987Z,12.73
2018-05-01T03:00:58.507Z,12.79
2018-05-01T03:03:26.171Z,12.74
2018-05-01T03:05:53.724Z,12.63
2018-05-01T03:08:21.276Z,12.72
2018-05-01T03:10:48.837Z,12.94
2018-05-01T03:13:16.391Z,12.97
2018-05-01T03:15:43.909Z,12.32
2018-05-01T03:18:11.451Z,12.50
2018-05-01T03:20:38.978Z,12.60
2018-05-01T03:23:06.490Z,12.60
2018-05-01T03:25:34.388Z,12.45
2018-05-01T03:28:01.929Z,12.29
2018-05-01T03:30:29.459Z,12.15
2018-05-01T03:32:57.023Z,12.32
2018-05-01T03:35:24.536Z,12.22
2018-05-01T03:37:52.081Z,12.16
2018-05-01T03:40:19.638Z,12.31
2018-05-01T03:42:47.195Z,12.27
2018-05-01T03:45:14.718Z,12.12
2018-05-01T03:47:43.323Z,11.91
2018-05-01T03:50:10.828Z,11.95
2018-05-01T03:52:38.348Z,12.12
2018-05-01T03:55:05.916Z,12.01
2018-05-01T03:57:33.463Z,11.94
2018-05-01T04:00:00.974Z,11.85
2018-05-01T04:02:28.508Z,11.87
2018-05-01T04:04:56.049Z,11.77
2018-05-01T04:07:23.590Z,12.00
2018-05-01T04:09:51.512Z,12.28
2018-05-01T04:12:19.023Z,12.35
2018-05-01T04:14:46.560Z,12.04
2018-05-01T04:17:14.882Z,12.31
2018-05-01T04:19:42.405Z,12.37
2018-05-01T04:22:09.937Z,12.17
2018-05-01T04:24:37.504Z,11.99
2018-05-01T04:27:05.036Z,11.95
2018-05-01T04:29:32.567Z,11.84
2018-05-01T04:32:00.511Z,11.71
2018-05-01T04:34:28.020Z,11.76
2018-05-01T04:36:55.572Z,11.64
2018-05-01T04:39:23.116Z,11.76
2018-05-01T04:41:50.643Z,11.92
2018-05-01T04:44:18.931Z,11.96
2018-05-01T04:46:46.546Z,11.78
2018-05-01T04:49:14.066Z,11.59
2018-05-01T04:51:41.676Z,11.56
2018-05-01T04:54:09.419Z,11.74
2018-05-01T04:56:36.967Z,11.93
2018-05-01T04:59:04.484Z,11.94
2018-05-01T05:01:32.834Z,11.67
2018-05-01T05:04:00.372Z,11.21
2018-05-01T05:06:27.898Z,11.02
2018-05-01T05:08:55.458Z,11.15
2018-05-01T05:11:23.003Z,11.16
2018-05-01T05:13:51.301Z,10.93
2018-05-01T05:16:19.109Z,11.02
2018-05-01T05:18:46.633Z,11.13
2018-05-01T05:21:14.153Z,11.07
2018-05-01T05:23:41.689Z,10.59
2018-05-01T05:26:09.235Z,10.71
2018-05-01T05:28:36.767Z,10.93
2018-05-01T05:31:04.328Z,10.86
2018-05-01T05:33:31.911Z,11.13
2018-05-01T05:35:59.440Z,10.97
2018-05-01T05:41:01.544Z,10.51
2018-05-01T05:43:29.088Z,10.56
2018-05-01T05:45:56.642Z,10.99
2018-05-01T05:48:24.937Z,10.89
2018-05-01T05:50:52.474Z,10.59
2018-05-01T05:53:20.038Z,10.76
2018-05-01T05:55:48.338Z,11.06
2018-05-01T05:58:16.185Z,11.09
2018-05-01T06:00:44.479Z,10.86
2018-05-01T06:03:12.015Z,10.95
2018-05-01T06:05:39.573Z,11.08
2018-05-01T06:08:07.892Z,10.99
2018-05-01T06:10:35.421Z,11.40
2018-05-01T06:13:02.994Z,11.06
2018-05-01T06:15:30.544Z,10.71
2018-05-01T06:17:58.122Z,10.78
2018-05-01T06:20:25.798Z,11.03
2018-05-01T06:22:53.329Z,10.97
2018-05-01T06:25:20.864Z,10.73
2018-05-01T06:27:48.433Z,10.70
2018-05-01T06:30:16.765Z,10.73
2018-05-01T06:32:44.276Z,10.62
2018-05-01T06:35:12.605Z,10.48
2018-05-01T06:37:40.108Z,10.74
2018-05-01T06:40:07.630Z,10.71
2018-05-01T06:42:35.620Z,10.64
2018-05-01T06:45:03.161Z,10.56
2018-05-01T06:47:30.710Z,10.79
2018-05-01T06:49:58.259Z,11.07
2018-05-01T06:52:25.790Z,10.85
2018-05-01T06:54:54.150Z,10.87
2018-05-01T06:57:21.700Z,10.97
2018-05-01T06:59:49.215Z,10.71
2018-05-01T07:02:16.779Z,10.71
2018-05-01T07:04:44.648Z,10.93
2018-05-01T07:07:12.244Z,11.20
2018-05-01T07:09:39.760Z,10.77
2018-05-01T07:12:07.434Z,10.88
2018-05-01T07:14:35.024Z,10.66
2018-05-01T07:17:02.556Z,10.59
2018-05-01T07:19:30.144Z,10.77
2018-05-01T07:21:57.693Z,10.77
2018-05-01T07:24:25.251Z,10.55
2018-05-01T07:26:52.891Z,10.51
2018-05-01T07:29:20.549Z,10.47
2018-05-01T07:31:48.112Z,10.50
2018-05-01T07:34:15.688Z,10.14
2018-05-01T07:36:43.214Z,9.97
2018-05-01T07:39:10.737Z,10.18
2018-05-01T07:41:38.340Z,10.23
2018-05-01T07:44:06.955Z,10.27
2018-05-01T07:46:34.510Z,10.48
2018-05-01T07:49:02.501Z,10.56
2018-05-01T07:51:30.119Z,10.47
2018-05-01T07:53:57.702Z,10.40
2018-05-01T07:56:25.603Z,10.48
2018-05-01T07:58:53.500Z,10.70
2018-05-01T08:01:21.812Z,10.49
2018-05-01T08:03:49.350Z,9.95
2018-05-01T08:06:16.888Z,10.08
2018-05-01T08:08:45.212Z,10.53
2018-05-01T08:11:13.278Z,10.36
2018-05-01T08:13:40.802Z,10.33
2018-05-01T08:16:08.407Z,10.32
2018-05-01T08:18:36.013Z,10.09
2018-05-01T08:21:04.351Z,10.15
2018-05-01T08:23:32.143Z,10.11
2018-05-01T08:25:59.729Z,10.34
2018-05-01T08:28:27.296Z,10.34
2018-05-01T08:30:55.589Z,10.10
2018-05-01T08:33:23.562Z,10.01
2018-05-01T08:35:51.092Z,9.94
2018-05-01T08:38:19.383Z,9.84
2018-05-01T08:40:47.717Z,9.74
2018-05-01T08:43:15.273Z,9.80
2018-05-01T08:45:43.628Z,9.80
2018-05-01T08:48:11.175Z,9.74
2018-05-01T08:50:38.691Z,9.76
2018-05-01T08:53:06.204Z,9.72
2018-05-01T08:55:34.185Z,9.81
2018-05-01T08:58:01.713Z,10.09
2018-05-01T09:00:29.548Z,9.92
2018-05-01T09:02:57.084Z,10.06
2018-05-01T09:05:24.629Z,9.97
2018-05-01T09:07:52.159Z,9.85
2018-05-01T09:10:19.718Z,9.80
2018-05-01T09:12:47.994Z,10.23
2018-05-01T09:15:15.580Z,10.08
2018-05-01T09:17:43.822Z,9.81
2018-05-01T09:20:11.280Z,10.07
2018-05-01T09:22:39.586Z,9.99
2018-05-01T09:25:07.189Z,10.15
2018-05-01T09:27:34.748Z,10.30
2018-05-01T09:30:02.447Z,10.15
2018-05-01T09:32:29.982Z,9.85
2018-05-01T09:34:57.501Z,10.13
2018-05-01T09:37:25.014Z,10.35
2018-05-01T09:39:52.738Z,10.07
2018-05-01T09:42:20.296Z,10.19
2018-05-01T09:44:47.864Z,10.06
2018-05-01T09:47:15.457Z,10.15
2018-05-01T09:49:43.045Z,10.10
2018-05-01T09:54:52.697Z,10.20
2018-05-01T09:57:22.100Z,10.06
2018-05-01T09:59:50.454Z,10.12
2018-05-01T10:02:19.488Z,10.10
2018-05-01T10:04:47.833Z,10.13
2018-05-01T10:07:16.942Z,10.05
2018-05-01T10:09:46.060Z,10.28
2018-05-01T10:12:14.500Z,10.29
2018-05-01T10:14:42.786Z,10.54
2018-05-01T10:17:11.089Z,10.59
2018-05-01T10:19:40.415Z,10.37
2018-05-01T10:22:08.832Z,10.41
2018-05-01T10:24:37.143Z,10.16
2018-05-01T10:27:06.272Z,10.26
2018-05-01T10:29:34.622Z,10.26
2018-05-01T10:32:03.008Z,10.32
2018-05-01T10:34:31.402Z,10.20
2018-05-01T10:36:59.733Z,10.25
2018-05-01T10:39:28.077Z,10.26
2018-05-01T10:41:57.671Z,10.28
2018-05-01T10:44:25.976Z,10.29
2018-05-01T10:46:54.307Z,10.43
2018-05-01T10:49:22.869Z,10.35
2018-05-01T10:51:51.147Z,10.73
2018-05-01T10:54:19.463Z,10.62
2018-05-01T10:56:47.872Z,10.43
2018-05-01T10:59:16.219Z,10.47
2018-05-01T11:01:44.537Z,10.33
2018-05-01T11:04:13.338Z,10.39
2018-05-01T11:06:41.652Z,10.21
2018-05-01T11:09:09.989Z,10.37
2018-05-01T11:11:38.382Z,10.38
2018-05-01T11:14:06.690Z,10.15
2018-05-01T11:16:35.022Z,10.36
2018-05-01T11:19:03.488Z,10.12
2018-05-01T11:21:31.821Z,9.89
2018-05-01T11:24:00.170Z,9.98
2018-05-01T11:26:28.894Z,10.07
2018-05-01T11:28:57.224Z,10.04
2018-05-01T11:31:25.544Z,10.38
2018-05-01T11:33:54.747Z,10.26
2018-05-01T11:36:23.151Z,10.27
2018-05-01T11:38:51.507Z,10.18
2018-05-01T11:41:19.869Z,9.90
2018-05-01T11:43:48.222Z,9.95
2018-05-01T11:46:16.563Z,9.83
2018-05-01T11:48:45.180Z,10.12
2018-05-01T11:51:13.566Z,10.35
2018-05-01T11:53:41.945Z,10.09
2018-05-01T11:56:10.288Z,10.38
2018-05-01T11:58:38.651Z,10.14
2018-05-01T12:01:07.084Z,10.39
2018-05-01T12:03:35.361Z,10.15
2018-05-01T12:06:03.723Z,10.22
2018-05-01T12:08:32.289Z,10.44
2018-05-01T12:11:00.953Z,10.29
2018-05-01T12:13:29.256Z,10.23
2018-05-01T12:15:57.609Z,10.07
2018-05-01T12:18:25.969Z,10.54
2018-05-01T12:20:54.322Z,10.57
2018-05-01T12:23:22.728Z,10.66
2018-05-01T12:25:51.848Z,10.47
2018-05-01T12:28:20.197Z,10.55
2018-05-01T12:30:48.553Z,10.47
2018-05-01T12:33:17.086Z,10.61
2018-05-01T12:35:45.586Z,10.76
2018-05-01T12:38:13.938Z,10.72
2018-05-01T12:40:43.085Z,10.70
2018-05-01T12:43:11.430Z,10.57
2018-05-01T12:45:39.772Z,10.73
2018-05-01T12:48:08.234Z,10.47
2018-05-01T12:50:36.517Z,10.37
2018-05-01T12:53:04.946Z,10.61
2018-05-01T12:55:33.680Z,10.86
2018-05-01T12:58:02.034Z,10.58
2018-05-01T13:00:30.364Z,11.00
2018-05-01T13:02:58.999Z,11.10
2018-05-01T13:05:27.324Z,11.17
2018-05-01T13:07:55.636Z,11.33
2018-05-01T13:10:23.991Z,11.41
2018-05-01T13:12:53.097Z,11.24
2018-05-01T13:15:22.172Z,11.44
2018-05-01T13:17:50.959Z,11.72
2018-05-01T13:20:19.317Z,11.51
2018-05-01T13:22:47.655Z,11.16
2018-05-01T13:25:16.008Z,11.19
2018-05-01T13:27:44.373Z,11.12
2018-05-01T13:30:12.741Z,11.21
2018-05-01T13:32:41.136Z,11.36
2018-05-01T13:35:09.468Z,11.65
2018-05-01T13:37:37.832Z,11.45
2018-05-01T13:40:06.273Z,11.46
2018-05-01T13:42:35.592Z,11.44
2018-05-01T13:45:03.905Z,11.25
2018-05-01T13:47:32.263Z,11.98
2018-05-01T13:50:00.617Z,11.88
2018-05-01T13:52:28.972Z,11.64
2018-05-01T13:54:57.628Z,11.62
2018-05-01T13:57:25.953Z,11.08
2018-05-01T13:59:55.077Z,11.37
2018-05-01T14:02:23.936Z,11.62
2018-05-01T14:04:52.416Z,11.49
2018-05-01T14:07:20.798Z,11.16
2018-05-01T14:09:49.203Z,11.59
2018-05-01T14:12:18.291Z,11.07
2018-05-01T14:14:47.394Z,11.61
2018-05-01T14:17:16.595Z,11.61
2018-05-01T14:19:44.959Z,11.28
2018-05-01T14:22:13.303Z,11.52
2018-05-01T14:24:41.961Z,11.64
2018-05-01T14:27:10.272Z,11.38
2018-05-01T14:29:38.641Z,11.27
2018-05-01T14:32:06.997Z,11.53
2018-05-01T14:34:35.347Z,11.43
2018-05-01T14:37:04.465Z,11.81
2018-05-01T14:39:32.822Z,11.63
2018-05-01T14:42:02.008Z,11.71
2018-05-01T14:44:30.325Z,11.87
2018-05-01T14:46:58.981Z,12.02
2018-05-01T14:49:28.121Z,12.41
2018-05-01T14:51:56.482Z,13.31
2018-05-01T14:54:24.856Z,13.19
2018-05-01T14:56:53.296Z,13.40
2018-05-01T14:59:21.681Z,13.16
2018-05-01T15:01:50.053Z,13.50
2018-05-01T15:04:18.400Z,12.90
2018-05-01T15:06:46.882Z,12.25
2018-05-01T15:09:15.460Z,12.36
2018-05-01T15:11:44.028Z,12.15
2018-05-01T15:14:12.383Z,12.04
2018-05-01T15:16:40.764Z,12.09
2018-05-01T15:19:09.710Z,11.71
2018-05-01T15:21:38.068Z,11.95
2018-05-01T15:24:06.445Z,11.75
2018-05-01T15:26:34.803Z,12.38
2018-05-01T15:29:03.935Z,12.41
2018-05-01T15:31:32.911Z,12.80
2018-05-01T15:34:01.245Z,13.13
2018-05-01T15:36:29.588Z,13.16
2018-05-01T15:38:58.005Z,12.77
2018-05-01T15:41:26.328Z,13.08
2018-05-01T15:43:54.882Z,13.15
2018-05-01T15:46:23.254Z,13.27
2018-05-01T15:48:51.601Z,13.30
2018-05-01T15:51:19.949Z,13.13
2018-05-01T15:53:48.828Z,13.12
2018-05-01T15:56:17.924Z,13.20
2018-05-01T15:58:46.266Z,13.41
2018-05-01T16:01:14.700Z,13.65
2018-05-01T16:03:42.999Z,13.88
2018-05-01T16:06:11.334Z,14.14
2018-05-01T16:08:41.219Z,13.96
2018-05-01T16:11:09.547Z,14.23
2018-05-01T16:13:37.870Z,14.12
2018-05-01T16:16:06.794Z,14.07
2018-05-01T16:18:35.892Z,14.44
2018-05-01T16:21:05.012Z,14.82
2018-05-01T16:23:33.365Z,14.50
2018-05-01T16:26:02.459Z,14.08
2018-05-01T16:28:30.759Z,14.01
2018-05-01T16:30:59.857Z,14.01
2018-05-01T16:33:28.217Z,14.12
2018-05-01T16:35:57.369Z,14.22
2018-05-01T16:38:25.871Z,14.34
2018-05-01T16:40:54.180Z,14.29
2018-05-01T16:43:23.291Z,14.30
2018-05-01T16:45:51.659Z,14.44
2018-05-01T16:48:19.956Z,13.93
2018-05-01T16:50:48.288Z,14.24
2018-05-01T16:53:16.779Z,14.35
2018-05-01T16:55:45.124Z,14.59
2018-05-01T16:58:13.458Z,14.77
2018-05-01T17:00:41.876Z,14.47
2018-05-01T17:03:10.223Z,14.58
2018-05-01T17:05:38.526Z,14.84
2018-05-01T17:08:07.005Z,14.86
2018-05-01T17:10:35.343Z,14.74
2018-05-01T17:13:04.452Z,14.87
2018-05-01T17:15:33.657Z,14.62
2018-05-01T17:18:01.983Z,14.50
2018-05-01T17:20:30.328Z,14.47
2018-05-01T17:22:59.077Z,14.66
2018-05-01T17:25:27.431Z,14.76
2018-05-01T17:27:56.552Z,14.55
2018-05-01T17:30:24.907Z,14.55
2018-05-01T17:32:53.241Z,14.65
2018-05-01T17:35:21.558Z,14.64
2018-05-01T17:37:49.893Z,14.70
2018-05-01T17:40:19.014Z,14.67
2018-05-01T17:42:47.352Z,13.64
2018-05-01T17:45:16.040Z,13.73
2018-05-01T17:47:45.154Z,13.97
2018-05-01T17:50:13.478Z,13.93
2018-05-01T17:52:41.850Z,13.83
2018-05-01T17:55:10.199Z,13.61
2018-05-01T17:57:38.546Z,13.79
2018-05-01T18:00:07.709Z,13.42
2018-05-01T18:02:36.046Z,13.48
2018-05-01T18:05:05.147Z,13.33
2018-05-01T18:07:34.024Z,13.43
2018-05-01T18:10:02.366Z,13.19
2018-05-01T18:12:30.781Z,13.22
2018-05-01T18:14:59.094Z,13.25
2018-05-01T18:17:27.445Z,13.39
2018-05-01T18:19:56.521Z,13.47
2018-05-01T18:22:24.875Z,13.51
2018-05-01T18:24:53.216Z,13.35
2018-05-01T18:27:21.571Z,13.30
2018-05-01T18:29:51.167Z,13.32
2018-05-01T18:32:19.541Z,13.35
2018-05-01T18:34:47.973Z,13.20
2018-05-01T18:37:16.384Z,12.94
2018-05-01T18:39:44.715Z,13.08
2018-05-01T18:42:13.067Z,13.03
2018-05-01T18:44:42.193Z,12.99
2018-05-01T18:47:10.671Z,13.06
2018-05-01T18:49:39.004Z,12.98
2018-05-01T18:52:07.735Z,12.71
2018-05-01T18:54:36.151Z,12.83
2018-05-01T18:57:04.527Z,12.88
2018-05-01T18:59:32.897Z,12.83
2018-05-01T19:02:01.263Z,12.79
2018-05-01T19:04:29.585Z,12.78
2018-05-01T19:06:57.947Z,12.76
2018-05-01T19:09:26.290Z,12.84
2018-05-01T19:11:54.724Z,12.84
2018-05-01T19:14:23.462Z,12.88
2018-05-01T19:16:51.794Z,12.82
2018-05-01T19:19:20.139Z,12.78
2018-05-01T19:21:48.482Z,12.71
2018-05-01T19:24:16.862Z,12.66
2018-05-01T19:26:45.993Z,12.35
2018-05-01T19:29:14.408Z,12.49
2018-05-01T19:31:42.768Z,12.57
2018-05-01T19:34:11.109Z,12.51
2018-05-01T19:36:39.819Z,12.44
2018-05-01T19:39:08.914Z,12.49
2018-05-01T19:41:37.246Z,12.43
2018-05-01T19:44:05.644Z,12.42
2018-05-01T19:46:33.975Z,12.09
2018-05-01T19:49:03.051Z,11.98
2018-05-01T19:51:31.381Z,11.93
2018-05-01T19:53:59.723Z,12.04
2018-05-01T19:56:28.088Z,11.94
2018-05-01T19:58:56.958Z,11.94
2018-05-01T20:01:25.292Z,11.99
2018-05-01T20:03:53.608Z,12.11
2018-05-01T20:06:22.759Z,11.93
2018-05-01T20:08:51.164Z,11.82
2018-05-01T20:11:19.432Z,11.60
2018-05-01T20:13:47.797Z,11.54
2018-05-01T20:16:16.164Z,11.49
2018-05-01T20:18:44.499Z,11.34
2018-05-01T20:21:14.133Z,11.52
2018-05-01T20:23:42.466Z,11.56
2018-05-01T20:26:11.576Z,11.47
2018-05-01T20:28:41.015Z,11.19
2018-05-01T20:31:10.594Z,10.89
2018-05-01T20:33:39.720Z,10.81
2018-05-01T20:36:08.110Z,10.59
2018-05-01T20:38:36.463Z,10.37
2018-05-01T20:41:04.781Z,10.37
2018-05-01T20:43:33.515Z,10.23
2018-05-01T20:46:01.878Z,10.33
2018-05-01T20:48:31.038Z,10.32
2018-05-01T20:50:59.404Z,10.33
2018-05-01T20:53:27.743Z,10.15
2018-05-01T20:55:56.087Z,10.43
2018-05-01T20:58:24.434Z,10.30
2018-05-01T21:00:52.782Z,10.26
2018-05-01T21:03:21.936Z,10.24
2018-05-01T21:05:50.888Z,10.27
2018-05-01T21:08:19.249Z,10.37
2018-05-01T21:10:48.400Z,10.39
2018-05-01T21:13:16.764Z,10.22
2018-05-01T21:15:45.272Z,10.26
2018-05-01T21:18:13.564Z,9.96
2018-05-01T21:20:41.926Z,9.99
2018-05-01T21:23:10.230Z,9.95
2018-05-01T21:25:39.308Z,9.85
2018-05-01T21:28:08.908Z,9.88
2018-05-01T21:30:38.020Z,9.86
2018-05-01T21:33:06.369Z,9.94
2018-05-01T21:35:34.715Z,10.05
2018-05-01T21:38:03.032Z,10.07
2018-05-01T21:40:31.505Z,10.08
2018-05-01T21:42:59.984Z,10.17
2018-05-01T21:45:28.258Z,10.02
2018-05-01T21:47:56.599Z,9.92
2018-05-01T21:50:26.067Z,10.00
2018-05-01T21:52:54.398Z,9.84
2018-05-01T21:55:22.756Z,9.76
2018-05-01T21:57:51.129Z,9.47
2018-05-01T22:00:19.435Z,9.17
2018-05-01T22:02:47.760Z,9.36
2018-05-01T22:05:16.908Z,9.45
2018-05-01T22:07:45.208Z,9.49
2018-05-01T22:10:13.528Z,9.64
2018-05-01T22:12:42.156Z,9.65
2018-05-01T22:15:10.475Z,9.78
2018-05-01T22:17:39.351Z,9.79
2018-05-01T22:20:07.705Z,9.85
2018-05-01T22:22:36.032Z,9.92
2018-05-01T22:25:04.342Z,9.82
2018-05-01T22:27:32.688Z,9.82
2018-05-01T22:30:01.004Z,9.71
2018-05-01T22:32:30.234Z,9.57
2018-05-01T22:34:58.926Z,9.44
2018-05-01T22:37:27.268Z,9.55
2018-05-01T22:39:56.363Z,9.58
2018-05-01T22:42:25.479Z,9.57
2018-05-01T22:44:53.775Z,9.47
2018-05-01T22:47:22.116Z,9.18
2018-05-01T22:49:50.454Z,8.97
2018-05-01T22:52:18.760Z,8.70
2018-05-01T22:54:47.858Z,8.77
2018-05-01T22:57:17.089Z,8.66
2018-05-01T22:59:46.259Z,8.60
2018-05-01T23:02:15.658Z,8.59
2018-05-01T23:04:44.009Z,8.36
2018-05-01T23:07:12.355Z,8.33
2018-05-01T23:09:40.811Z,8.39
2018-05-01T23:12:09.170Z,8.09
2018-05-01T23:14:37.516Z,7.88
2018-05-01T23:17:05.839Z,7.59
2018-05-01T23:19:35.269Z,7.76
2018-05-01T23:22:03.629Z,7.95
2018-05-01T23:24:31.942Z,8.03
2018-05-01T23:27:00.336Z,8.09
2018-05-01T23:29:28.654Z,8.10
2018-05-01T23:31:57.739Z,8.02
2018-05-01T23:34:26.116Z,7.50
2018-05-01T23:36:54.463Z,7.48
2018-05-01T23:39:22.764Z,7.39
2018-05-01T23:41:51.425Z,7.51
2018-05-01T23:44:20.545Z,7.58
2018-05-01T23:46:48.861Z,7.79
2018-05-01T23:49:17.964Z,7.64
2018-05-01T23:51:46.306Z,7.62
2018-05-01T23:54:14.670Z,7.66
2018-05-01T23:56:43.060Z,7.77
2018-05-01T23:59:11.387Z,7.84
